Valiant — WCY6766 — position and weather

sailwx.info

Track history (hours):
 
Tides and Currents Weather Stations Pressure Air Temp Water Temp Dewpoint Dewpoint Depression Visibility Wind Speed Wind Dir Waves Ship Positions

Valiant

Owner: PENN MARITIME INC, SEATTLE, WA. More information available from US FCC via Universal Licensing System and Coast Guard Vessel Documentation Center.

Last reported at 2015-Jan-22 16:33 UTC. Time now 2015-Jan-29 04:23 UTC.
Position N 29°22' W 094°48'.

Length 165 m; draft 8.6 m.

Type: Cargo ship. MMSI: 369350000.

Date/timePositionNaut miles runAvg speedWind from/ knotsBaromVisibWave heightAir tempDewpointWater temp
2015-Jan-22 16:33N 29°22' W 094°48'1110.9
2015-Jan-22 15:33N 29°32' W 094°53'1010.0
2015-Jan-22 14:33N 29°41' W 094°59'8 7.7
2015-Jan-22 13:34N 29°46' W 095°05'1 1.2
2015-Jan-22 12:34N 29°45' W 095°06'0 0.0
2015-Jan-22 11:33N 29°45' W 095°06'0 0.0
2015-Jan-22 10:33N 29°45' W 095°06'0 0.0
2015-Jan-22 09:33N 29°45' W 095°06'0 0.0
2015-Jan-22 08:33N 29°45' W 095°06'0 0.0
2015-Jan-22 07:33N 29°45' W 095°06'0 0.0
2015-Jan-22 06:33N 29°45' W 095°06'0 0.0
2015-Jan-22 05:33N 29°45' W 095°06'0 0.0
2015-Jan-22 04:33N 29°45' W 095°06'0 0.0
2015-Jan-22 03:34N 29°45' W 095°06'0 0.0
2015-Jan-22 02:33N 29°45' W 095°06'0 0.0
2015-Jan-22 01:33N 29°45' W 095°06'0 0.0
2015-Jan-22 00:34N 29°45' W 095°06'0 0.0
2015-Jan-21 23:33N 29°45' W 095°06'0 0.0
2015-Jan-21 22:50N 29°45' W 095°06'0 0.0
2015-Jan-21 22:46N 29°45' W 095°06'0 0.0
2015-Jan-21 22:33N 29°45' W 095°06'0 0.0
2015-Jan-21 21:33N 29°45' W 095°06'0 0.0
2015-Jan-21 20:33N 29°45' W 095°06'0 0.0
2015-Jan-21 19:33N 29°45' W 095°06'0 0.0
2015-Jan-21 18:33N 29°45' W 095°06'0 0.0
2015-Jan-21 17:33N 29°45' W 095°06'0 0.0
2015-Jan-21 16:33N 29°45' W 095°06'0 0.0
2015-Jan-21 15:33N 29°45' W 095°06'0 0.0
2015-Jan-21 14:33N 29°45' W 095°06'0 0.0
2015-Jan-21 13:34N 29°45' W 095°06'0 0.0
2015-Jan-21 12:33N 29°45' W 095°06'0 0.0
2015-Jan-21 11:34N 29°45' W 095°06'0 0.0
2015-Jan-21 10:33N 29°45' W 095°06'0 0.0
2015-Jan-21 09:34N 29°45' W 095°06'0 0.0
2015-Jan-21 08:33N 29°45' W 095°06'0 0.0
2015-Jan-21 07:33N 29°45' W 095°06'0 0.0
2015-Jan-21 06:33N 29°45' W 095°06'0 0.0
2015-Jan-21 05:33N 29°45' W 095°06'0 0.0
2015-Jan-21 04:34N 29°45' W 095°06'0 0.0
2015-Jan-21 03:34N 29°45' W 095°06'0 0.0
2015-Jan-21 02:33N 29°45' W 095°06'0 0.0
2015-Jan-21 01:33N 29°45' W 095°06'0 0.0
2015-Jan-21 00:33N 29°45' W 095°06'0 0.0
2015-Jan-20 23:33N 29°45' W 095°06'0 0.0
2015-Jan-20 22:33N 29°45' W 095°06'0 0.0
2015-Jan-20 21:33N 29°45' W 095°06'0 0.0
2015-Jan-20 20:33N 29°45' W 095°06'0 0.0
2015-Jan-20 19:33N 29°45' W 095°06'0 0.0
2015-Jan-20 18:33N 29°45' W 095°06'0 0.0
2015-Jan-20 17:33N 29°45' W 095°06'0 0.0
2015-Jan-20 16:33N 29°45' W 095°06'0 0.0
2015-Jan-20 15:34N 29°45' W 095°06'0 0.0
2015-Jan-20 14:33N 29°45' W 095°06'0 0.0
2015-Jan-20 13:33N 29°45' W 095°06'0 0.0
2015-Jan-20 12:33N 29°45' W 095°06'0 0.0
2015-Jan-20 11:33N 29°45' W 095°06'0 0.0
2015-Jan-20 09:07N 29°45' W 095°06'0 0.0
2015-Jan-20 08:33N 29°45' W 095°06'0 0.0
2015-Jan-20 07:33N 29°45' W 095°06'0 0.0
2015-Jan-20 06:33N 29°45' W 095°06'0 0.0
2015-Jan-20 05:32N 29°45' W 095°06'0 0.0
2015-Jan-20 04:33N 29°45' W 095°06'0 0.0
2015-Jan-20 03:33N 29°45' W 095°06'0 0.0
2015-Jan-20 02:33N 29°45' W 095°06'0 0.0
2015-Jan-20 01:33N 29°45' W 095°06'0 0.0
2015-Jan-20 00:33N 29°45' W 095°06'0 0.0
2015-Jan-19 23:33N 29°45' W 095°06'0 0.0
2015-Jan-19 22:34N 29°45' W 095°06'0 0.0
2015-Jan-19 21:33N 29°45' W 095°06'0 0.0
2015-Jan-19 20:33N 29°45' W 095°06'0 0.0
2015-Jan-19 19:33N 29°45' W 095°06'3 2.8
2015-Jan-19 18:33N 29°44' W 095°03'8 8.0
2015-Jan-19 17:33N 29°38' W 094°58'10 9.2
2015-Jan-19 16:27N 29°29' W 094°52'55 5.9
2015-Jan-19 07:12N 29°42' W 093°50'6 9.0
2015-Jan-19 06:34N 29°46' W 093°55'13 6.6
2015-Jan-19 04:33N 29°59' W 093°53'  
Track history (hours):
 
Tides and Currents Weather Stations Pressure Air Temp Water Temp Dewpoint Dewpoint Depression Visibility Wind Speed Wind Dir Waves Ship Positions

Valiant

Owner: PENN MARITIME INC, SEATTLE, WA. More information available from US FCC via Universal Licensing System and Coast Guard Vessel Documentation Center.

Last reported at 2015-Jan-22 16:33 UTC. Time now 2015-Jan-29 04:23 UTC.
Position N 29°22' W 094°48'.

Length 165 m; draft 8.6 m.

Type: Cargo ship. MMSI: 369350000.

Date/timePositionNaut miles runAvg speedWind from/ knotsBaromVisibWave heightAir tempDewpointWater temp
2015-Jan-22 16:33N 29°22' W 094°48'1110.9
2015-Jan-22 15:33N 29°32' W 094°53'1010.0
2015-Jan-22 14:33N 29°41' W 094°59'8 7.7
2015-Jan-22 13:34N 29°46' W 095°05'1 1.2
2015-Jan-22 12:34N 29°45' W 095°06'0 0.0
2015-Jan-22 11:33N 29°45' W 095°06'0 0.0
2015-Jan-22 10:33N 29°45' W 095°06'0 0.0
2015-Jan-22 09:33N 29°45' W 095°06'0 0.0
2015-Jan-22 08:33N 29°45' W 095°06'0 0.0
2015-Jan-22 07:33N 29°45' W 095°06'0 0.0
2015-Jan-22 06:33N 29°45' W 095°06'0 0.0
2015-Jan-22 05:33N 29°45' W 095°06'0 0.0
2015-Jan-22 04:33N 29°45' W 095°06'0 0.0
2015-Jan-22 03:34N 29°45' W 095°06'0 0.0
2015-Jan-22 02:33N 29°45' W 095°06'0 0.0
2015-Jan-22 01:33N 29°45' W 095°06'0 0.0
2015-Jan-22 00:34N 29°45' W 095°06'0 0.0
2015-Jan-21 23:33N 29°45' W 095°06'0 0.0
2015-Jan-21 22:50N 29°45' W 095°06'0 0.0
2015-Jan-21 22:46N 29°45' W 095°06'0 0.0
2015-Jan-21 22:33N 29°45' W 095°06'0 0.0
2015-Jan-21 21:33N 29°45' W 095°06'0 0.0
2015-Jan-21 20:33N 29°45' W 095°06'0 0.0
2015-Jan-21 19:33N 29°45' W 095°06'0 0.0
2015-Jan-21 18:33N 29°45' W 095°06'0 0.0
2015-Jan-21 17:33N 29°45' W 095°06'0 0.0
2015-Jan-21 16:33N 29°45' W 095°06'0 0.0
2015-Jan-21 15:33N 29°45' W 095°06'0 0.0
2015-Jan-21 14:33N 29°45' W 095°06'0 0.0
2015-Jan-21 13:34N 29°45' W 095°06'0 0.0
2015-Jan-21 12:33N 29°45' W 095°06'0 0.0
2015-Jan-21 11:34N 29°45' W 095°06'0 0.0
2015-Jan-21 10:33N 29°45' W 095°06'0 0.0
2015-Jan-21 09:34N 29°45' W 095°06'0 0.0
2015-Jan-21 08:33N 29°45' W 095°06'0 0.0
2015-Jan-21 07:33N 29°45' W 095°06'0 0.0
2015-Jan-21 06:33N 29°45' W 095°06'0 0.0
2015-Jan-21 05:33N 29°45' W 095°06'0 0.0
2015-Jan-21 04:34N 29°45' W 095°06'0 0.0
2015-Jan-21 03:34N 29°45' W 095°06'0 0.0
2015-Jan-21 02:33N 29°45' W 095°06'0 0.0
2015-Jan-21 01:33N 29°45' W 095°06'0 0.0
2015-Jan-21 00:33N 29°45' W 095°06'0 0.0
2015-Jan-20 23:33N 29°45' W 095°06'0 0.0
2015-Jan-20 22:33N 29°45' W 095°06'0 0.0
2015-Jan-20 21:33N 29°45' W 095°06'0 0.0
2015-Jan-20 20:33N 29°45' W 095°06'0 0.0
2015-Jan-20 19:33N 29°45' W 095°06'0 0.0
2015-Jan-20 18:33N 29°45' W 095°06'0 0.0
2015-Jan-20 17:33N 29°45' W 095°06'0 0.0
2015-Jan-20 16:33N 29°45' W 095°06'0 0.0
2015-Jan-20 15:34N 29°45' W 095°06'0 0.0
2015-Jan-20 14:33N 29°45' W 095°06'0 0.0
2015-Jan-20 13:33N 29°45' W 095°06'0 0.0
2015-Jan-20 12:33N 29°45' W 095°06'0 0.0
2015-Jan-20 11:33N 29°45' W 095°06'0 0.0
2015-Jan-20 09:07N 29°45' W 095°06'0 0.0
2015-Jan-20 08:33N 29°45' W 095°06'0 0.0
2015-Jan-20 07:33N 29°45' W 095°06'0 0.0
2015-Jan-20 06:33N 29°45' W 095°06'0 0.0
2015-Jan-20 05:32N 29°45' W 095°06'0 0.0
2015-Jan-20 04:33N 29°45' W 095°06'0 0.0
2015-Jan-20 03:33N 29°45' W 095°06'0 0.0
2015-Jan-20 02:33N 29°45' W 095°06'0 0.0
2015-Jan-20 01:33N 29°45' W 095°06'0 0.0
2015-Jan-20 00:33N 29°45' W 095°06'0 0.0
2015-Jan-19 23:33N 29°45' W 095°06'0 0.0
2015-Jan-19 22:34N 29°45' W 095°06'0 0.0
2015-Jan-19 21:33N 29°45' W 095°06'0 0.0
2015-Jan-19 20:33N 29°45' W 095°06'0 0.0
2015-Jan-19 19:33N 29°45' W 095°06'3 2.8
2015-Jan-19 18:33N 29°44' W 095°03'8 8.0
2015-Jan-19 17:33N 29°38' W 094°58'10 9.2
2015-Jan-19 16:27N 29°29' W 094°52'55 5.9
2015-Jan-19 07:12N 29°42' W 093°50'6 9.0
2015-Jan-19 06:34N 29°46' W 093°55'13 6.6
2015-Jan-19 04:33N 29°59' W 093°53'  

Dump ship's entire track history